createdAt,value
2022-12-01T00:01:38.833Z,99557.16
2022-12-01T00:04:07.494Z,99551.50
2022-12-01T00:06:36.187Z,99551.50
2022-12-01T00:09:23.994Z,99555.88
2022-12-01T00:11:52.653Z,99552.34
2022-12-01T00:14:21.270Z,99553.47
2022-12-01T00:16:49.983Z,99552.34
2022-12-01T00:19:18.829Z,99560.44
2022-12-01T00:21:47.611Z,99553.47
2022-12-01T00:24:17.542Z,99556.69
2022-12-01T00:26:46.238Z,99552.34
2022-12-01T00:29:14.878Z,99560.59
2022-12-01T00:31:43.530Z,99562.69
2022-12-01T00:34:22.970Z,99555.09
2022-12-01T00:36:51.621Z,99560.44
2022-12-01T00:39:21.715Z,99556.22
2022-12-01T00:41:50.322Z,99556.69
2022-12-01T00:44:18.906Z,99556.84
2022-12-01T00:46:47.528Z,99557.50
2022-12-01T00:49:16.655Z,99562.34
2022-12-01T00:51:45.342Z,99553.47
2022-12-01T00:54:13.962Z,99558.63
2022-12-01T00:56:43.968Z,99556.56
2022-12-01T00:59:12.838Z,99560.75
2022-12-01T01:01:41.529Z,99553.66
2022-12-01T01:04:10.139Z,99556.41
2022-12-01T01:06:38.763Z,99554.97
2022-12-01T01:09:07.343Z,99561.41
2022-12-01T01:11:35.993Z,99563.66
2022-12-01T01:14:06.393Z,99566.13
2022-12-01T01:16:35.406Z,99563.16
2022-12-01T01:19:04.030Z,99568.31
2022-12-01T01:21:32.682Z,99568.97
2022-12-01T01:24:01.352Z,99567.50
2022-12-01T01:26:31.548Z,99564.25
2022-12-01T01:29:01.883Z,99575.13
2022-12-01T01:31:32.490Z,99578.16
2022-12-01T01:34:01.076Z,99579.84
2022-12-01T01:36:29.721Z,99576.13
2022-12-01T01:38:58.350Z,99576.41
2022-12-01T01:41:27.010Z,99578.22
2022-12-01T01:43:57.138Z,99571.72
2022-12-01T01:46:26.894Z,99572.84
2022-12-01T01:49:00.133Z,99569.59
2022-12-01T01:51:31.418Z,99568.97
2022-12-01T01:54:03.434Z,99567.81
2022-12-01T01:56:32.131Z,99572.19
2022-12-01T01:59:00.947Z,99571.38
2022-12-01T02:01:29.916Z,99571.38
2022-12-01T02:04:00.009Z,99571.06
2022-12-01T02:06:28.682Z,99567.81
2022-12-01T02:08:57.271Z,99559.72
2022-12-01T02:11:48.227Z,99561.03
2022-12-01T02:14:42.694Z,99568.66
2022-12-01T02:17:20.769Z,99556.78
2022-12-01T02:20:12.410Z,99564.38
2022-12-01T02:22:53.569Z,99565.06
2022-12-01T02:25:27.730Z,99561.94
2022-12-01T02:28:17.727Z,99565.34
2022-12-01T02:30:49.963Z,99553.34
2022-12-01T02:33:21.603Z,99570.38
2022-12-01T02:35:53.763Z,99559.88
2022-12-01T02:38:25.952Z,99552.41
2022-12-01T02:40:57.859Z,99554.81
2022-12-01T02:43:31.683Z,99560.84
2022-12-01T02:46:05.803Z,99551.41
2022-12-01T02:48:35.607Z,99562.44
2022-12-01T02:51:08.039Z,99556.25
2022-12-01T02:53:36.854Z,99563.38
2022-12-01T02:56:08.379Z,99554.81
2022-12-01T02:58:37.094Z,99557.09
2022-12-01T03:01:38.144Z,99564.19
2022-12-01T03:04:33.659Z,99566.13
2022-12-01T03:07:09.363Z,99553.19
2022-12-01T03:09:47.975Z,99560.44
2022-12-01T03:12:23.429Z,99557.84
2022-12-01T03:14:56.708Z,99556.69
2022-12-01T03:17:29.035Z,99547.47
2022-12-01T03:20:01.838Z,99545.53
2022-12-01T03:22:34.594Z,99546.34
2022-12-01T03:25:04.416Z,99551.06
2022-12-01T03:27:36.491Z,99550.09
2022-12-01T03:30:10.235Z,99548.31
2022-12-01T03:32:46.634Z,99552.34
2022-12-01T03:35:17.755Z,99545.66
2022-12-01T03:37:51.060Z,99546.81
2022-12-01T03:40:24.788Z,99544.91
2022-12-01T03:42:56.695Z,99556.41
2022-12-01T03:45:28.691Z,99549.72
2022-12-01T03:47:58.687Z,99554.78
2022-12-01T03:50:31.087Z,99556.53
2022-12-01T03:53:06.453Z,99557.84
2022-12-01T03:55:38.527Z,99555.41
2022-12-01T03:58:11.634Z,99553.88
2022-12-01T04:00:40.545Z,99557.13
2022-12-01T04:03:18.424Z,99550.03
2022-12-01T04:05:47.286Z,99552.78
2022-12-01T04:08:15.939Z,99552.25
2022-12-01T04:10:44.747Z,99549.03
2022-12-01T04:13:22.826Z,99559.25
2022-12-01T04:15:51.924Z,99560.53
2022-12-01T04:18:22.724Z,99560.16
2022-12-01T04:20:51.588Z,99553.72
2022-12-01T04:23:34.118Z,99558.25
2022-12-01T04:26:03.390Z,99555.66
2022-12-01T04:28:31.969Z,99554.03
2022-12-01T04:31:00.647Z,99549.06
2022-12-01T04:33:31.564Z,99554.03
2022-12-01T04:36:00.725Z,99555.50
2022-12-01T04:38:31.052Z,99553.56
2022-12-01T04:40:59.861Z,99557.47
2022-12-01T04:43:28.435Z,99553.09
2022-12-01T04:45:56.991Z,99561.19
2022-12-01T04:48:25.593Z,99554.19
2022-12-01T04:50:55.551Z,99557.44
2022-12-01T04:53:24.212Z,99557.25
2022-12-01T04:55:52.800Z,99557.44
2022-12-01T04:58:21.431Z,99561.44
2022-12-01T05:00:50.115Z,99561.59
2022-12-01T05:03:18.727Z,99561.66
2022-12-01T05:05:47.358Z,99555.03
2022-12-01T05:08:17.277Z,99556.47
2022-12-01T05:10:45.943Z,99567.63
2022-12-01T05:13:14.579Z,99562.28
2022-12-01T05:15:43.130Z,99564.59
2022-12-01T05:18:11.790Z,99573.31
2022-12-01T05:20:57.390Z,99571.94
2022-12-01T05:25:57.286Z,99575.81
2022-12-01T05:28:27.351Z,99569.47
2022-12-01T05:30:56.416Z,99574.13
2022-12-01T05:33:26.232Z,99564.88
2022-12-01T05:35:55.395Z,99575.53
2022-12-01T05:38:24.028Z,99575.06
2022-12-01T05:40:55.325Z,99567.28
2022-12-01T05:43:29.129Z,99573.28
2022-12-01T05:45:58.895Z,99579.25
2022-12-01T05:48:27.780Z,99573.28
2022-12-01T05:50:56.442Z,99572.97
2022-12-01T05:53:25.074Z,99582.16
2022-12-01T05:55:55.455Z,99578.91
2022-12-01T05:58:24.048Z,99573.06
2022-12-01T06:00:52.652Z,99573.88
2022-12-01T06:03:21.243Z,99577.13
2022-12-01T06:05:49.980Z,99580.13
2022-12-01T06:08:18.633Z,99578.84
2022-12-01T06:10:47.246Z,99576.41
2022-12-01T06:13:17.232Z,99583.06
2022-12-01T06:15:45.828Z,99579.16
2022-12-01T06:18:14.383Z,99586.94
2022-12-01T06:20:42.942Z,99581.59
2022-12-01T06:23:11.586Z,99573.03
2022-12-01T06:25:40.227Z,99582.56
2022-12-01T06:28:08.848Z,99582.91
2022-12-01T06:30:38.824Z,99580.63
2022-12-01T06:33:07.424Z,99585.97
2022-12-01T06:35:36.085Z,99585.97
2022-12-01T06:38:05.063Z,99582.56
2022-12-01T06:40:33.727Z,99586.47
2022-12-01T06:43:03.153Z,99585.28
2022-12-01T06:45:32.246Z,99593.75
2022-12-01T06:48:03.004Z,99595.19
2022-12-01T06:50:31.632Z,99601.50
2022-12-01T06:53:00.280Z,99599.19
2022-12-01T06:55:28.927Z,99605.03
2022-12-01T06:58:00.864Z,99611.16
2022-12-01T07:00:29.900Z,99601.78
2022-12-01T07:02:58.619Z,99604.50
2022-12-01T07:05:28.627Z,99606.66
2022-12-01T07:07:59.643Z,99607.53
2022-12-01T07:10:28.821Z,99616.88
2022-12-01T07:12:58.047Z,99615.88
2022-12-01T07:15:28.680Z,99613.28
2022-12-01T07:17:57.328Z,99614.78
2022-12-01T07:20:25.974Z,99611.06
2022-12-01T07:22:56.718Z,99615.28
2022-12-01T07:25:25.317Z,99621.38
2022-12-01T07:27:53.860Z,99625.59
2022-12-01T07:30:28.099Z,99628.00
2022-12-01T07:32:57.170Z,99612.50
2022-12-01T07:35:25.782Z,99616.88
2022-12-01T07:37:57.027Z,99623.53
2022-12-01T07:40:25.685Z,99629.13
2022-12-01T07:42:54.290Z,99615.38
2022-12-01T07:45:22.954Z,99623.31
2022-12-01T07:47:53.914Z,99615.69
2022-12-01T07:50:22.557Z,99623.53
2022-12-01T07:52:51.194Z,99627.66
2022-12-01T07:55:21.125Z,99622.63
2022-12-01T07:57:49.724Z,99620.03
2022-12-01T08:00:18.923Z,99620.88
2022-12-01T08:02:49.448Z,99627.53
2022-12-01T08:05:18.144Z,99645.31
2022-12-01T08:07:46.806Z,99641.75
2022-12-01T08:10:15.682Z,99636.59
2022-12-01T08:12:47.719Z,99637.41
2022-12-01T08:15:16.571Z,99639.03
2022-12-01T08:17:45.256Z,99645.09
2022-12-01T08:20:18.471Z,99633.47
2022-12-01T08:22:51.028Z,99631.47
2022-12-01T08:25:19.626Z,99640.16
2022-12-01T08:27:49.653Z,99640.16
2022-12-01T08:30:18.353Z,99647.31
2022-12-01T08:32:46.937Z,99649.59
2022-12-01T08:35:15.654Z,99656.16
2022-12-01T08:37:44.275Z,99653.75
2022-12-01T08:40:13.831Z,99649.41
2022-12-01T08:42:42.467Z,99653.97
2022-12-01T08:45:13.500Z,99648.31
2022-12-01T08:47:43.083Z,99648.63
2022-12-01T08:50:12.231Z,99647.38
2022-12-01T08:52:40.872Z,99641.88
2022-12-01T08:55:10.452Z,99645.28
2022-12-01T08:57:39.043Z,99649.00
2022-12-01T09:00:08.962Z,99649.50
2022-12-01T09:02:38.958Z,99660.16
2022-12-01T09:05:08.589Z,99665.63
2022-12-01T09:07:37.291Z,99654.19
2022-12-01T09:10:07.249Z,99659.69
2022-12-01T09:12:35.996Z,99667.91
2022-12-01T09:15:05.160Z,99659.84
2022-12-01T09:17:33.802Z,99666.28
2022-12-01T09:20:03.765Z,99666.44
2022-12-01T09:22:34.124Z,99666.13
2022-12-01T09:25:02.823Z,99665.19
2022-12-01T09:27:31.474Z,99663.22
2022-12-01T09:30:00.146Z,99667.81
2022-12-01T09:32:28.780Z,99676.84
2022-12-01T09:34:57.373Z,99670.19
2022-12-01T09:37:27.377Z,99662.97
2022-12-01T09:39:56.202Z,99663.91
2022-12-01T09:42:30.863Z,99660.38
2022-12-01T09:45:04.926Z,99651.19
2022-12-01T09:47:36.078Z,99655.22
2022-12-01T09:50:07.646Z,99653.31
2022-12-01T09:52:42.160Z,99659.81
2022-12-01T09:55:12.928Z,99653.09
2022-12-01T09:57:42.170Z,99659.53
2022-12-01T10:00:15.247Z,99649.41
2022-12-01T10:02:48.545Z,99640.69
2022-12-01T10:05:20.092Z,99642.94
2022-12-01T10:07:53.717Z,99640.69
2022-12-01T10:10:27.534Z,99640.41
2022-12-01T10:12:56.240Z,99632.34
2022-12-01T10:15:33.389Z,99634.09
2022-12-01T10:18:10.656Z,99628.63
2022-12-01T10:20:43.536Z,99621.66
2022-12-01T10:23:24.588Z,99622.31
2022-12-01T10:25:57.802Z,99618.59
2022-12-01T10:28:46.207Z,99615.69
2022-12-01T10:31:20.102Z,99613.94
2022-12-01T10:33:59.779Z,99612.00
2022-12-01T10:36:29.617Z,99617.03
2022-12-01T10:38:59.646Z,99622.03
2022-12-01T10:41:30.191Z,99619.75
2022-12-01T10:44:00.915Z,99608.91
2022-12-01T10:46:33.741Z,99610.69
2022-12-01T10:49:11.466Z,99599.06
2022-12-01T10:51:52.452Z,99610.25
2022-12-01T10:54:23.260Z,99600.72
2022-12-01T10:56:57.014Z,99597.63
2022-12-01T10:59:32.541Z,99604.59
2022-12-01T11:02:02.771Z,99599.72
2022-12-01T11:04:45.250Z,99602.47
2022-12-01T11:07:20.028Z,99604.38
2022-12-01T11:10:13.749Z,99589.91
2022-12-01T11:12:42.573Z,99598.94
2022-12-01T11:15:20.358Z,99594.34
2022-12-01T11:17:48.993Z,99594.22
2022-12-01T11:20:30.540Z,99586.00
2022-12-01T11:23:24.303Z,99581.66
2022-12-01T11:26:07.686Z,99576.00
2022-12-01T11:28:37.137Z,99579.75
2022-12-01T11:31:07.772Z,99572.66
2022-12-01T11:33:44.168Z,99574.78
2022-12-01T11:36:24.219Z,99563.94
2022-12-01T11:38:56.851Z,99565.41
2022-12-01T11:41:32.034Z,99575.13
2022-12-01T11:44:04.110Z,99568.31
2022-12-01T11:49:30.948Z,99570.09
2022-12-01T11:52:18.326Z,99569.97
2022-12-01T11:54:56.628Z,99560.25
2022-12-01T11:57:34.238Z,99564.31
2022-12-01T12:00:13.062Z,99565.09
2022-12-01T12:02:45.527Z,99565.91
2022-12-01T12:05:45.395Z,99562.50
2022-12-01T12:08:22.189Z,99562.88
2022-12-01T12:10:57.060Z,99565.91
2022-12-01T12:13:50.081Z,99561.38
2022-12-01T12:16:27.511Z,99549.91
2022-12-01T12:19:12.089Z,99556.84
2022-12-01T12:21:45.866Z,99554.13
2022-12-01T12:24:26.971Z,99549.94
2022-12-01T12:27:02.645Z,99538.25
2022-12-01T12:29:50.045Z,99548.31
2022-12-01T12:32:38.530Z,99546.56
2022-12-01T12:35:19.022Z,99535.06
2022-12-01T12:37:52.525Z,99532.78
2022-12-01T12:40:34.106Z,99537.19
2022-12-01T12:43:18.873Z,99536.06
2022-12-01T12:45:55.391Z,99526.66
2022-12-01T12:48:32.730Z,99528.28
2022-12-01T12:51:09.324Z,99527.94
2022-12-01T12:53:43.238Z,99531.19
2022-12-01T12:56:14.367Z,99529.72
2022-12-01T12:58:56.801Z,99528.59
2022-12-01T13:01:29.754Z,99534.72
2022-12-01T13:04:02.009Z,99534.72
2022-12-01T13:06:34.052Z,99531.84
2022-12-01T13:09:05.379Z,99531.84
2022-12-01T13:11:38.000Z,99529.09
2022-12-01T13:14:08.986Z,99521.16
2022-12-01T13:16:41.659Z,99525.38
2022-12-01T13:19:13.632Z,99519.84
2022-12-01T13:21:44.315Z,99526.16
2022-12-01T13:24:18.514Z,99515.94
2022-12-01T13:26:51.695Z,99526.66
2022-12-01T13:29:23.013Z,99516.75
2022-12-01T13:31:54.503Z,99515.63
2022-12-01T13:34:26.873Z,99514.34
2022-12-01T13:36:57.129Z,99513.06
2022-12-01T13:39:27.776Z,99517.91
2022-12-01T13:42:02.356Z,99512.72
2022-12-01T13:44:34.951Z,99515.31
2022-12-01T13:47:26.295Z,99520.50
2022-12-01T13:49:54.961Z,99522.13
2022-12-01T13:52:32.248Z,99519.53
2022-12-01T13:55:23.720Z,99522.13
2022-12-01T13:58:21.931Z,99517.91
2022-12-01T14:00:51.355Z,99513.38
2022-12-01T14:03:39.605Z,99513.03
2022-12-01T14:06:22.731Z,99520.81
2022-12-01T14:08:51.662Z,99513.38
2022-12-01T14:11:22.959Z,99514.34
2022-12-01T14:13:54.044Z,99519.53
2022-12-01T14:16:23.193Z,99519.84
2022-12-01T14:18:56.447Z,99520.78
2022-12-01T14:21:42.488Z,99522.75
2022-12-01T14:24:22.637Z,99517.59
2022-12-01T14:26:52.056Z,99520.34
2022-12-01T14:29:32.066Z,99514.66
2022-12-01T14:32:22.247Z,99513.03
2022-12-01T14:34:54.553Z,99505.59
2022-12-01T14:37:25.423Z,99501.38
2022-12-01T14:39:58.624Z,99508.00
2022-12-01T14:42:50.634Z,99504.63
2022-12-01T14:45:23.622Z,99506.53
2022-12-01T14:47:56.971Z,99514.16
2022-12-01T14:50:32.915Z,99497.97
2022-12-01T14:53:07.457Z,99512.72
2022-12-01T14:55:38.639Z,99512.41
2022-12-01T14:58:08.741Z,99505.59
2022-12-01T15:00:38.897Z,99509.47
2022-12-01T15:03:10.381Z,99509.47
2022-12-01T15:05:42.039Z,99511.91
2022-12-01T15:08:40.926Z,99501.06
2022-12-01T15:11:14.495Z,99510.44
2022-12-01T15:13:49.390Z,99512.72
2022-12-01T15:16:20.997Z,99505.75
2022-12-01T15:18:50.331Z,99512.56
2022-12-01T15:21:22.595Z,99515.31
2022-12-01T15:23:56.540Z,99514.50
2022-12-01T15:26:27.179Z,99506.25
2022-12-01T15:29:07.252Z,99515.13
2022-12-01T15:31:36.231Z,99519.34
2022-12-01T15:34:05.065Z,99516.78
2022-12-01T15:36:35.059Z,99519.19
2022-12-01T15:39:07.078Z,99513.50
2022-12-01T15:41:36.839Z,99518.22
2022-12-01T15:44:08.239Z,99516.78
2022-12-01T15:46:36.795Z,99523.38
2022-12-01T15:49:09.226Z,99514.97
2022-12-01T15:51:39.290Z,99521.47
2022-12-01T15:54:17.222Z,99527.59
2022-12-01T15:56:46.313Z,99519.84
2022-12-01T15:59:26.547Z,99513.38
2022-12-01T16:01:56.782Z,99511.09
2022-12-01T16:04:27.107Z,99515.16
2022-12-01T16:06:59.745Z,99512.84
2022-12-01T16:09:31.243Z,99516.28
2022-12-01T16:12:19.321Z,99509.97
2022-12-01T16:14:53.693Z,99512.72
2022-12-01T16:17:23.180Z,99503.16
2022-12-01T16:20:16.326Z,99506.06
2022-12-01T16:22:47.424Z,99503.47
2022-12-01T16:25:19.013Z,99505.25
2022-12-01T16:27:53.077Z,99507.19
2022-12-01T16:30:23.904Z,99504.94
2022-12-01T16:32:52.856Z,99516.91
2022-12-01T16:35:24.629Z,99513.19
2022-12-01T16:37:55.227Z,99519.19
2022-12-01T16:40:24.263Z,99510.59
2022-12-01T16:42:52.932Z,99509.63
2022-12-01T16:45:21.601Z,99514.47
2022-12-01T16:47:50.467Z,99507.03
2022-12-01T16:50:21.204Z,99513.03
2022-12-01T16:52:49.862Z,99512.06
2022-12-01T16:55:38.777Z,99507.69
2022-12-01T16:58:07.533Z,99508.34
2022-12-01T17:00:36.660Z,99510.78
2022-12-01T17:03:06.062Z,99511.56
2022-12-01T17:05:35.271Z,99512.06
2022-12-01T17:08:04.102Z,99506.72
2022-12-01T17:10:34.275Z,99507.38
2022-12-01T17:13:02.914Z,99516.91
2022-12-01T17:15:31.719Z,99504.94
2022-12-01T17:18:00.338Z,99508.97
2022-12-01T17:20:28.967Z,99507.69
2022-12-01T17:22:57.584Z,99499.91
2022-12-01T17:25:26.206Z,99504.63
2022-12-01T17:27:56.166Z,99504.28
2022-12-01T17:30:25.128Z,99507.69
2022-12-01T17:32:53.839Z,99510.78
2022-12-01T17:35:22.469Z,99508.03
2022-12-01T17:37:51.152Z,99510.47
2022-12-01T17:40:19.819Z,99512.25
2022-12-01T17:42:51.022Z,99512.41
2022-12-01T17:45:21.217Z,99514.34
2022-12-01T17:47:50.109Z,99506.56
2022-12-01T17:50:18.847Z,99512.41
2022-12-01T17:52:47.512Z,99513.22
2022-12-01T17:55:16.559Z,99505.91
2022-12-01T17:57:45.191Z,99509.31
2022-12-01T18:00:15.290Z,99507.06
2022-12-01T18:02:47.279Z,99507.88
2022-12-01T18:05:16.044Z,99518.41
2022-12-01T18:07:44.761Z,99520.03
2022-12-01T18:10:13.408Z,99510.63
2022-12-01T18:12:42.051Z,99515.00
2022-12-01T18:15:12.278Z,99497.47
2022-12-01T18:17:40.987Z,99511.25
2022-12-01T18:20:11.962Z,99510.78
2022-12-01T18:22:40.533Z,99507.53
2022-12-01T18:25:09.604Z,99505.59
2022-12-01T18:27:38.256Z,99514.34
2022-12-01T18:30:08.439Z,99510.78
2022-12-01T18:32:37.063Z,99506.41
2022-12-01T18:35:06.612Z,99504.75
2022-12-01T18:37:37.437Z,99517.09
2022-12-01T18:40:07.603Z,99515.47
2022-12-01T18:42:36.240Z,99514.81
2022-12-01T18:45:05.226Z,99509.31
2022-12-01T18:47:33.813Z,99500.06
2022-12-01T18:50:02.517Z,99509.31
2022-12-01T18:52:32.260Z,99504.28
2022-12-01T18:55:02.247Z,99503.31
2022-12-01T18:57:30.963Z,99504.78
2022-12-01T18:59:59.712Z,99496.50
2022-12-01T19:02:28.433Z,99496.84
2022-12-01T19:04:57.085Z,99490.19
2022-12-01T19:07:29.702Z,99501.03
2022-12-01T19:09:59.034Z,99483.56
2022-12-01T19:12:29.414Z,99501.03
2022-12-01T19:14:58.222Z,99486.13
2022-12-01T19:17:27.099Z,99496.19
2022-12-01T19:19:55.825Z,99498.13
2022-12-01T19:22:24.877Z,99493.91
2022-12-01T19:24:54.183Z,99499.09
2022-12-01T19:27:23.239Z,99500.38
2022-12-01T19:29:53.876Z,99492.63
2022-12-01T19:32:23.176Z,99488.25
2022-12-01T19:34:52.058Z,99489.53
2022-12-01T19:37:21.021Z,99491.31
2022-12-01T19:39:49.641Z,99486.16
2022-12-01T19:42:18.269Z,99487.09
2022-12-01T19:44:47.146Z,99485.34
2022-12-01T19:47:21.853Z,99491.31
2022-12-01T19:49:51.049Z,99490.69
2022-12-01T19:52:19.693Z,99485.16
2022-12-01T19:54:48.695Z,99491.03
2022-12-01T19:57:17.605Z,99498.94
2022-12-01T19:59:46.217Z,99506.22
2022-12-01T20:02:15.000Z,99499.75
2022-12-01T20:04:45.056Z,99501.69
2022-12-01T20:07:13.750Z,99507.19
2022-12-01T20:09:49.578Z,99503.16
2022-12-01T20:12:18.822Z,99497.63
2022-12-01T20:14:47.648Z,99499.59
2022-12-01T20:17:16.461Z,99504.78
2022-12-01T20:19:46.557Z,99497.97
2022-12-01T20:22:15.166Z,99498.78
2022-12-01T20:24:43.847Z,99496.84
2022-12-01T20:27:12.575Z,99506.41
2022-12-01T20:29:41.200Z,99496.69
2022-12-01T20:32:09.938Z,99495.22
2022-12-01T20:34:38.624Z,99495.22
2022-12-01T20:37:08.670Z,99493.28
2022-12-01T20:39:38.627Z,99498.31
2022-12-01T20:42:07.574Z,99500.41
2022-12-01T20:44:36.724Z,99500.41
2022-12-01T20:47:05.500Z,99495.06
2022-12-01T20:49:34.341Z,99492.00
2022-12-01T20:52:03.033Z,99489.69
2022-12-01T20:54:33.014Z,99485.19
2022-12-01T20:57:01.712Z,99495.53
2022-12-01T20:59:30.386Z,99494.88
2022-12-01T21:01:59.150Z,99494.09
2022-12-01T21:04:27.818Z,99489.41
2022-12-01T21:06:57.050Z,99493.13
2022-12-01T21:09:26.072Z,99484.84
2022-12-01T21:12:15.707Z,99481.13
2022-12-01T21:14:46.777Z,99482.91
2022-12-01T21:17:25.360Z,99476.25
2022-12-01T21:19:57.265Z,99481.63
2022-12-01T21:22:26.324Z,99469.47
2022-12-01T21:25:03.473Z,99470.28
2022-12-01T21:27:33.600Z,99474.47
2022-12-01T21:30:02.555Z,99471.72
2022-12-01T21:32:32.787Z,99472.88
2022-12-01T21:35:06.719Z,99470.91
2022-12-01T21:37:35.450Z,99471.25
2022-12-01T21:40:04.389Z,99471.72
2022-12-01T21:42:34.357Z,99466.69
2022-12-01T21:45:03.049Z,99468.16
2022-12-01T21:47:31.752Z,99472.88
2022-12-01T21:50:02.220Z,99471.25
2022-12-01T21:52:35.073Z,99462.34
2022-12-01T21:55:28.139Z,99469.63
2022-12-01T21:57:58.163Z,99465.09
2022-12-01T22:00:28.883Z,99470.91
2022-12-01T22:03:24.619Z,99465.91
2022-12-01T22:06:14.020Z,99466.06
2022-12-01T22:08:46.543Z,99465.91
2022-12-01T22:11:18.776Z,99468.31
2022-12-01T22:13:51.715Z,99461.84
2022-12-01T22:16:22.145Z,99463.63
2022-12-01T22:18:52.298Z,99460.06
2022-12-01T22:21:45.345Z,99454.56
2022-12-01T22:24:22.551Z,99451.31
2022-12-01T22:26:54.973Z,99461.22
2022-12-01T22:29:29.948Z,99456.03
2022-12-01T22:32:26.103Z,99452.94
2022-12-01T22:34:57.391Z,99451.81
2022-12-01T22:37:30.841Z,99444.38
2022-12-01T22:39:59.481Z,99436.91
2022-12-01T22:42:31.752Z,99456.34
2022-12-01T22:45:02.489Z,99445.66
2022-12-01T22:47:32.762Z,99448.72
2022-12-01T22:50:01.464Z,99450.66
2022-12-01T22:52:30.863Z,99442.41
2022-12-01T22:54:59.435Z,99443.03
2022-12-01T22:57:32.988Z,99438.84
2022-12-01T23:00:15.275Z,99431.25
2022-12-01T23:02:44.068Z,99434.81
2022-12-01T23:05:21.451Z,99431.41
2022-12-01T23:07:50.550Z,99430.75
2022-12-01T23:10:20.814Z,99433.00
2022-12-01T23:12:50.940Z,99434.81
2022-12-01T23:15:28.552Z,99429.78
2022-12-01T23:17:57.713Z,99428.97
2022-12-01T23:20:31.146Z,99428.16
2022-12-01T23:23:02.356Z,99428.81
2022-12-01T23:25:31.854Z,99431.06
2022-12-01T23:28:03.012Z,99428.47
2022-12-01T23:30:33.155Z,99427.69
2022-12-01T23:33:12.415Z,99426.53
2022-12-01T23:35:44.991Z,99423.94
2022-12-01T23:38:17.042Z,99419.41
2022-12-01T23:40:46.163Z,99420.72
2022-12-01T23:43:19.549Z,99420.53
2022-12-01T23:45:51.015Z,99417.63
2022-12-01T23:48:24.116Z,99414.56
2022-12-01T23:50:54.629Z,99411.31
2022-12-01T23:53:28.004Z,99412.59
2022-12-01T23:55:57.651Z,99413.91
2022-12-01T23:58:26.297Z,99405.00
